Flight Track Log - Related Links

Times and Time Zones

All times are in EDT time to prevent confusion due to time zone crossing. See the N418CT flight status page for this flight to view local times or setup timezone preferences in your user account.

Time Position Orientation Groundspeed Altitude Reporting Facility
EDT Latitude Longitude Course Direction KTS MPH feet Rate Location/Type
Wed 10:22:16 AM 40.8667 -74.3500 46° Northeast 247 284 3,900  Level New TRACON
Wed 10:23:10 AM 40.9333 -74.3167 21° North 263 303 5,900 1,050 Climbing New TRACON
Wed 10:24:16 AM 41.0000 -74.2500 37° Northeast 284 327 6,000 48 Climbing New TRACON
Wed 10:25:16 AM 41.0667 -74.2000 29° Northeast 272 313 6,000 150 Level New TRACON
Wed 10:26:16 AM 41.1333 -74.1500 29° Northeast 260 299 6,300 900 Climbing New TRACON
Wed 10:27:00 AM 41.1916 -73.8823 46° Northeast  Level Estimated
Wed 10:27:16 AM 41.1667 -74.0667 62° Northeast 285 328 7,800  Level New TRACON
Wed 10:28:16 AM 41.2000 -73.9667 66° East 294 338 9,700 2,250 Climbing New TRACON
Wed 10:30:36 AM 41.2511 -73.7183 75° East 317 365 15,300 2,424 Climbing Boston Center
Wed 10:31:34 AM 41.2753 -73.6056 74° East 312 359 17,700 1,866 Climbing Boston Center
Wed 10:32:35 AM 41.3281 -73.5208 50° Northeast 318 366 19,000 1,388 Climbing Boston Center
Wed 10:33:35 AM 41.3956 -73.4336 44° Northeast 323 372 20,500 1,466 Climbing Boston Center
Wed 10:34:46 AM 41.4875 -73.4183 North 314 361 22,200 1,727 Climbing Boston Center
Wed 10:35:47 AM 41.6000 -73.4172 360° North 314 361 24,300 1,388 Climbing Boston Center
Wed 10:36:47 AM 41.6981 -73.4131 North 334 384 25,000 347 Climbing Boston Center
Wed 10:37:48 AM 41.8064 -73.4064 North 363 418 25,000  Level Boston Center
Wed 10:38:48 AM 41.9150 -73.4025 North 381 438 25,000  Level Boston Center
Wed 10:39:49 AM 42.0211 -73.3958 North 381 438 25,000  Level Boston Center
Wed 10:40:47 AM 42.1358 -73.3864 North 391 450 25,000  Level Boston Center
Wed 10:41:47 AM 42.2364 -73.3347 21° North 396 456 25,000  Level Boston Center
Wed 10:42:48 AM 42.3081 -73.2122 52° Northeast 385 443 25,000  Level Boston Center
Wed 10:43:48 AM 42.3819 -73.0808 53° Northeast 406 467 25,000  Level Boston Center
Wed 10:44:48 AM 42.4556 -72.9522 52° Northeast 417 480 25,000  Level Boston Center
Wed 10:45:46 AM 42.5247 -72.8289 53° Northeast 417 480 25,000 -100 Level Boston Center
Wed 10:46:48 AM 42.5981 -72.7025 52° Northeast 417 480 24,800 -590 Descending Boston Center
Wed 10:47:48 AM 42.6714 -72.5814 51° Northeast 417 480 23,800 -843 Descending Boston Center
Wed 10:48:49 AM 42.7547 -72.4428 51° Northeast 417 480 23,100 -908 Descending Boston Center
Wed 10:49:47 AM 42.8192 -72.3242 53° Northeast 417 480 22,000 -1,017 Descending Boston Center
Wed 10:50:47 AM 42.8775 -72.2078 56° Northeast 416 479 21,100 -1,000 Descending Boston Center
Wed 10:51:47 AM 42.9603 -72.0569 53° Northeast 411 473 20,000 -992 Descending Boston Center
Wed 10:52:48 AM 43.0308 -71.9344 52° Northeast 411 473 19,100 -504 Descending Boston Center
Wed 10:53:46 AM 43.0969 -71.8144 53° Northeast 411 473 19,000 -252 Descending Boston Center
Wed 10:54:47 AM 43.1628 -71.6914 54° Northeast 405 466 18,600 -934 Descending Boston Center
Wed 10:55:48 AM 43.2308 -71.5711 52° Northeast 405 466 17,100 -1,488 Descending Boston Center
Wed 10:56:48 AM 43.2781 -71.4847 53° Northeast 400 460 15,600 -1,884 Descending Boston Center
Wed 10:57:49 AM 43.3578 -71.3322 54° Northeast 382 440 13,300 -2,034 Descending Boston Center
Wed 10:58:46 AM 43.4192 -71.2194 53° Northeast 376 433 11,600 -1,179 Descending Boston Center
Wed 10:59:46 AM 43.4681 -71.1128 58° Northeast 346 398 11,000 -298 Descending Boston Center
Wed 11:00:47 AM 43.4958 -70.9919 72° East 330 380 11,000 -744 Level Boston Center
Wed 11:01:47 AM 43.5192 -70.8769 74° East 319 367 9,500 -1,587 Descending Boston Center
Wed 11:02:48 AM 43.5447 -70.7672 72° East 306 352 7,800 -1,388 Descending Boston Center
Wed 11:03:48 AM 43.5642 -70.6722 74° East 286 329 6,700 -397 Descending Boston Center
Wed 11:04:49 AM 43.5731 -70.5689 83° East 249 287 7,000 -153 Climbing Boston Center
Wed 11:05:46 AM 43.5486 -70.4864 112° Southeast 242 278 6,400 -1,128 Descending Boston Center
Wed 11:06:46 AM 43.5303 -70.3811 103° East 252 290 4,800 -1,388 Descending Boston Center
Wed 11:07:47 AM 43.5286 -70.2981 92° East 246 283 3,600 -984 Descending Boston Center
Wed 11:08:48 AM 43.5331 -70.2064 86° East 226 260 2,800 -545 Descending Boston Center
Wed 11:09:48 AM 43.5678 -70.1678 39° Northeast 184 212 2,500 -496 Descending Boston Center
Wed 11:10:49 AM 43.6242 -70.1742 355° North 171 197 1,800 -559 Descending Boston Center
Wed 11:11:46 AM 43.6583 -70.2131 321° Northwest 171 197 1,400 -558 Descending Boston Center
Wed 11:12:58 AM 43.6428 -70.2711 250° West 143 165 600 -667 Descending Boston Center
Wed 11:14:00 AM 43.6333 -70.3000 328° Northwest  Level FlightAware
Wed 11:21:00 AM 43.6456 -70.3086 328° Northwest  Level Estimated
Wed 11:22:00 AM 43.6456 -70.3086 328° Northwest  Level Estimated

Login

Don't have an account? Register now (free) for customized features, flight alerts, and more!